Terminal Aerodrome Forecast
Issued by NWS Northern Indiana

Home | Current Version | Previous Version | Text Only | Print | Product List | Glossary Off
Versions: 1 2 3 4 5 6 7 8 9 10 11 12 13 14 15 16 17 18 19

907
FTUS43 KIWX 190957 AAB
TAFFWA
TAF AMD
KFWA 190957Z 1910/2006 09005KT 1/2SM FG OVC002
     FM191030 10005KT 2SM +TSRA BR OVC003CB
     FM191130 10004KT 2SM -SHRA BR OVC005
     FM191600 VRB04KT 5SM BR VCSH OVC015
     FM192100 14006KT P6SM BKN035
     FM200050 VRB03KT P6SM SCT035=

USA.gov is the U.S. government's official web portal to all federal, state and local government web resources and services.